createdAt,value
2019-03-01T00:00:52.309Z,4.00
2019-03-01T00:03:18.613Z,3.10
2019-03-01T00:06:09.488Z,2.80
2019-03-01T00:09:05.301Z,2.50
2019-03-01T00:11:46.772Z,2.70
2019-03-01T00:14:19.448Z,2.77
2019-03-01T00:17:01.288Z,2.80
2019-03-01T00:19:46.121Z,3.20
2019-03-01T00:22:25.271Z,2.83
2019-03-01T00:24:57.872Z,2.80
2019-03-01T00:27:39.705Z,3.00
2019-03-01T00:30:36.361Z,2.63
2019-03-01T00:33:15.528Z,3.10
2019-03-01T00:35:54.266Z,2.83
2019-03-01T00:38:58.075Z,2.73
2019-03-01T00:41:33.871Z,2.47
2019-03-01T00:44:19.826Z,3.10
2019-03-01T00:46:45.986Z,2.60
2019-03-01T00:49:12.260Z,3.03
2019-03-01T00:51:38.483Z,3.10
2019-03-01T00:54:04.650Z,2.67
2019-03-01T00:56:30.934Z,2.90
2019-03-01T00:58:57.295Z,3.63
2019-03-01T01:01:23.556Z,3.70
2019-03-01T01:03:49.834Z,3.37
2019-03-01T01:06:16.139Z,3.37
2019-03-01T01:08:42.399Z,3.03
2019-03-01T01:11:08.558Z,3.03
2019-03-01T01:13:34.877Z,3.40
2019-03-01T01:16:01.014Z,2.97
2019-03-01T01:18:27.190Z,3.20
2019-03-01T01:20:53.495Z,2.80
2019-03-01T01:23:19.769Z,3.40
2019-03-01T01:25:45.935Z,3.10
2019-03-01T01:28:12.285Z,3.50
2019-03-01T01:30:38.554Z,3.60
2019-03-01T01:33:04.741Z,3.67
2019-03-01T01:35:31.029Z,3.87
2019-03-01T01:37:57.286Z,3.93
2019-03-01T01:40:23.558Z,3.40
2019-03-01T01:42:49.768Z,4.03
2019-03-01T01:45:16.076Z,3.47
2019-03-01T01:47:42.322Z,4.63
2019-03-01T01:50:08.627Z,3.67
2019-03-01T01:52:34.900Z,3.70
2019-03-01T01:55:01.077Z,4.47
2019-03-01T01:57:27.301Z,4.50
2019-03-01T01:59:53.518Z,4.00
2019-03-01T02:02:19.807Z,4.50
2019-03-01T02:04:46.098Z,4.63
2019-03-01T02:07:12.265Z,4.00
2019-03-01T02:09:38.935Z,4.47
2019-03-01T02:12:05.237Z,3.90
2019-03-01T02:14:31.401Z,5.27
2019-03-01T02:16:57.671Z,5.00
2019-03-01T02:19:23.985Z,4.60
2019-03-01T02:21:50.250Z,4.47
2019-03-01T02:24:16.427Z,4.33
2019-03-01T02:26:42.733Z,4.73
2019-03-01T02:29:09.332Z,4.90
2019-03-01T02:31:36.551Z,5.07
2019-03-01T02:34:02.843Z,5.57
2019-03-01T02:36:29.020Z,4.70
2019-03-01T02:38:55.179Z,4.50
2019-03-01T02:41:21.488Z,5.13
2019-03-01T02:43:47.774Z,4.80
2019-03-01T02:46:13.946Z,4.20
2019-03-01T02:48:40.238Z,5.03
2019-03-01T02:51:06.402Z,4.87
2019-03-01T02:53:32.572Z,4.97
2019-03-01T02:55:58.993Z,4.87
2019-03-01T02:58:25.265Z,5.17
2019-03-01T03:00:51.555Z,5.73
2019-03-01T03:03:17.749Z,4.97
2019-03-01T03:05:52.052Z,5.00
2019-03-01T03:08:18.212Z,5.27
2019-03-01T03:10:44.407Z,5.23
2019-03-01T03:13:10.689Z,5.33
2019-03-01T03:15:39.777Z,4.97
2019-03-01T03:18:05.996Z,5.17
2019-03-01T03:20:32.257Z,6.13
2019-03-01T03:22:58.540Z,5.63
2019-03-01T03:25:24.777Z,5.27
2019-03-01T03:27:50.919Z,6.20
2019-03-01T03:30:18.606Z,5.20
2019-03-01T03:32:44.913Z,5.33
2019-03-01T03:35:11.121Z,5.57
2019-03-01T03:37:37.349Z,5.80
2019-03-01T03:40:07.272Z,5.53
2019-03-01T03:42:33.425Z,5.23
2019-03-01T03:44:59.588Z,4.83
2019-03-01T03:47:25.943Z,5.10
2019-03-01T03:49:52.200Z,5.10
2019-03-01T03:52:18.376Z,5.10
2019-03-01T03:54:44.684Z,5.30
2019-03-01T03:57:10.956Z,5.07
2019-03-01T03:59:37.120Z,4.50
2019-03-01T04:02:03.512Z,6.07
2019-03-01T04:04:29.778Z,5.83
2019-03-01T04:06:55.966Z,5.97
2019-03-01T04:09:22.262Z,5.83
2019-03-01T04:11:48.546Z,5.57
2019-03-01T04:14:14.850Z,5.67
2019-03-01T04:16:41.064Z,5.77
2019-03-01T04:19:07.341Z,6.13
2019-03-01T04:21:33.617Z,6.10
2019-03-01T04:23:59.844Z,5.80
2019-03-01T04:26:26.096Z,5.83
2019-03-01T04:28:52.377Z,6.23
2019-03-01T04:31:18.555Z,5.60
2019-03-01T04:33:44.827Z,5.60
2019-03-01T04:36:11.109Z,5.07
2019-03-01T04:38:37.318Z,5.70
2019-03-01T04:41:03.492Z,6.37
2019-03-01T04:43:29.773Z,6.10
2019-03-01T04:45:55.981Z,6.53
2019-03-01T04:48:22.251Z,5.50
2019-03-01T04:50:48.539Z,7.00
2019-03-01T04:53:14.838Z,6.33
2019-03-01T04:55:41.106Z,6.13
2019-03-01T04:58:07.390Z,6.57
2019-03-01T05:00:33.701Z,6.73
2019-03-01T05:02:59.979Z,6.40
2019-03-01T05:05:26.149Z,7.60
2019-03-01T05:07:52.468Z,7.07
2019-03-01T05:10:18.752Z,7.20
2019-03-01T05:12:45.025Z,6.30
2019-03-01T05:15:14.655Z,6.50
2019-03-01T05:17:41.058Z,7.30
2019-03-01T05:20:07.355Z,7.57
2019-03-01T05:22:33.634Z,7.03
2019-03-01T05:24:59.802Z,6.90
2019-03-01T05:27:26.072Z,7.10
2019-03-01T05:29:52.616Z,7.13
2019-03-01T05:32:18.866Z,7.43
2019-03-01T05:34:45.141Z,7.07
2019-03-01T05:37:11.455Z,7.50
2019-03-01T05:39:37.634Z,8.23
2019-03-01T05:42:03.828Z,7.73
2019-03-01T05:44:30.144Z,7.63
2019-03-01T05:46:56.342Z,7.13
2019-03-01T05:49:22.504Z,7.50
2019-03-01T05:51:48.808Z,6.63
2019-03-01T05:54:15.076Z,7.87
2019-03-01T05:56:41.340Z,7.73
2019-03-01T05:59:16.202Z,10.30
2019-03-01T06:01:46.073Z,7.60
2019-03-01T06:04:23.576Z,8.00
2019-03-01T06:07:05.392Z,8.27
2019-03-01T06:09:38.318Z,9.00
2019-03-01T06:12:09.144Z,8.17
2019-03-01T06:14:57.100Z,9.07
2019-03-01T06:17:32.361Z,10.33
2019-03-01T06:20:02.286Z,9.50
2019-03-01T06:22:41.024Z,10.03
2019-03-01T06:25:20.049Z,8.60
2019-03-01T06:28:08.120Z,9.63
2019-03-01T06:30:40.684Z,9.37
2019-03-01T06:33:28.360Z,9.57
2019-03-01T06:36:02.966Z,9.07
2019-03-01T06:39:04.697Z,9.20
2019-03-01T06:42:06.175Z,10.60
2019-03-01T06:44:38.812Z,9.90
2019-03-01T06:47:20.300Z,10.03
2019-03-01T06:49:48.407Z,10.93
2019-03-01T06:52:15.189Z,10.93
2019-03-01T06:54:41.404Z,10.20
2019-03-01T06:57:07.584Z,9.83
2019-03-01T06:59:33.874Z,11.63
2019-03-01T07:02:00.186Z,10.07
2019-03-01T07:04:26.501Z,8.70
2019-03-01T07:06:52.663Z,8.50
2019-03-01T07:09:18.981Z,11.83
2019-03-01T07:11:45.242Z,10.73
2019-03-01T07:14:11.440Z,12.33
2019-03-01T07:16:37.736Z,10.07
2019-03-01T07:19:04.016Z,12.10
2019-03-01T07:21:30.194Z,11.27
2019-03-01T07:23:56.414Z,12.33
2019-03-01T07:26:22.778Z,11.83
2019-03-01T07:28:49.058Z,11.87
2019-03-01T07:31:15.364Z,9.90
2019-03-01T07:33:41.658Z,12.37
2019-03-01T07:36:08.003Z,12.13
2019-03-01T07:38:34.221Z,12.00
2019-03-01T07:41:00.492Z,10.93
2019-03-01T07:43:26.764Z,12.40
2019-03-01T07:45:53.165Z,11.90
2019-03-01T07:48:19.325Z,8.50
2019-03-01T07:50:45.910Z,11.47
2019-03-01T07:53:12.212Z,11.40
2019-03-01T07:55:38.378Z,11.03
2019-03-01T07:58:04.660Z,10.20
2019-03-01T08:00:30.856Z,12.47
2019-03-01T08:02:57.186Z,8.23
2019-03-01T08:05:23.455Z,8.27
2019-03-01T08:07:56.086Z,12.60
2019-03-01T08:10:22.538Z,13.83
2019-03-01T08:12:47.438Z,13.30
2019-03-01T08:15:15.119Z,12.23
2019-03-01T08:17:41.277Z,13.50
2019-03-01T08:20:10.451Z,12.77
2019-03-01T08:22:47.472Z,14.57
2019-03-01T08:25:07.025Z,12.73
2019-03-01T08:27:33.312Z,12.53
2019-03-01T08:29:59.506Z,11.63
2019-03-01T08:32:27.462Z,11.00
2019-03-01T08:34:54.696Z,12.57
2019-03-01T08:37:21.173Z,13.50
2019-03-01T08:39:49.605Z,14.50
2019-03-01T08:42:15.393Z,13.33
2019-03-01T08:44:41.709Z,13.40
2019-03-01T08:47:07.977Z,14.10
2019-03-01T08:49:34.157Z,13.23
2019-03-01T08:52:01.420Z,13.87
2019-03-01T08:54:28.709Z,10.93
2019-03-01T08:56:55.001Z,9.27
2019-03-01T08:59:21.207Z,10.53
2019-03-01T09:01:47.483Z,13.90
2019-03-01T09:04:17.330Z,13.23
2019-03-01T09:06:42.076Z,12.13
2019-03-01T09:09:08.792Z,11.33
2019-03-01T09:11:35.196Z,13.10
2019-03-01T09:14:01.501Z,7.73
2019-03-01T09:16:27.669Z,12.20
2019-03-01T09:18:53.935Z,8.33
2019-03-01T09:21:20.253Z,9.63
2019-03-01T09:23:48.033Z,14.20
2019-03-01T09:26:16.673Z,13.80
2019-03-01T09:28:42.686Z,14.17
2019-03-01T09:31:08.871Z,8.07
2019-03-01T09:33:35.141Z,13.03
2019-03-01T09:36:03.249Z,13.00
2019-03-01T09:38:29.522Z,13.43
2019-03-01T09:40:57.433Z,12.73
2019-03-01T09:43:24.717Z,14.37
2019-03-01T09:45:52.183Z,11.80
2019-03-01T09:48:18.447Z,13.47
2019-03-01T09:50:44.648Z,13.77
2019-03-01T09:53:10.919Z,13.83
2019-03-01T09:55:37.680Z,13.73
2019-03-01T09:58:05.020Z,14.77
2019-03-01T10:00:41.020Z,15.00
2019-03-01T10:03:07.344Z,14.20
2019-03-01T10:05:33.651Z,13.63
2019-03-01T10:08:02.204Z,12.97
2019-03-01T10:10:30.715Z,13.70
2019-03-01T10:12:56.879Z,13.70
2019-03-01T10:15:23.139Z,12.90
2019-03-01T10:17:49.329Z,11.37
2019-03-01T10:20:15.479Z,13.43
2019-03-01T10:22:41.737Z,12.13
2019-03-01T10:25:11.043Z,11.03
2019-03-01T10:27:37.200Z,11.83
2019-03-01T10:30:25.037Z,11.57
2019-03-01T10:32:51.299Z,13.03
2019-03-01T10:35:17.466Z,11.73
2019-03-01T10:37:43.666Z,9.63
2019-03-01T10:40:23.220Z,13.67
2019-03-01T10:42:49.412Z,12.60
2019-03-01T10:45:18.071Z,14.03
2019-03-01T10:47:44.331Z,13.17
2019-03-01T10:50:11.421Z,13.97
2019-03-01T10:52:37.603Z,13.57
2019-03-01T10:55:07.274Z,11.67
2019-03-01T10:57:33.465Z,9.97
2019-03-01T10:59:59.625Z,11.57
2019-03-01T11:02:25.784Z,12.97
2019-03-01T11:04:52.019Z,10.67
2019-03-01T11:07:18.312Z,10.23
2019-03-01T11:09:44.593Z,10.13
2019-03-01T11:12:10.770Z,11.80
2019-03-01T11:14:36.927Z,12.63
2019-03-01T11:17:03.084Z,12.03
2019-03-01T11:19:29.276Z,11.67
2019-03-01T11:21:55.531Z,12.33
2019-03-01T11:24:21.693Z,12.23
2019-03-01T11:26:47.908Z,11.90
2019-03-01T11:29:14.123Z,9.43
2019-03-01T11:31:40.282Z,9.57
2019-03-01T11:34:06.836Z,9.80
2019-03-01T11:36:32.996Z,11.97
2019-03-01T11:38:59.166Z,10.80
2019-03-01T11:41:25.369Z,11.73
2019-03-01T11:43:51.529Z,10.73
2019-03-01T11:46:17.687Z,10.47
2019-03-01T11:48:43.883Z,11.50
2019-03-01T11:51:10.048Z,10.60
2019-03-01T11:53:36.314Z,9.37
2019-03-01T11:56:02.509Z,10.57
2019-03-01T11:58:28.688Z,8.60
2019-03-01T12:00:54.961Z,8.97
2019-03-01T12:03:23.601Z,8.73
2019-03-01T12:05:51.139Z,9.60
2019-03-01T12:08:17.348Z,9.07
2019-03-01T12:10:45.377Z,9.80
2019-03-01T12:13:11.544Z,10.50
2019-03-01T12:15:37.802Z,10.93
2019-03-01T12:18:04.184Z,9.17
2019-03-01T12:20:31.357Z,11.40
2019-03-01T12:22:57.521Z,11.27
2019-03-01T12:25:23.815Z,11.47
2019-03-01T12:27:50.075Z,12.87
2019-03-01T12:30:20.956Z,13.23
2019-03-01T12:32:47.452Z,14.17
2019-03-01T12:35:13.738Z,13.30
2019-03-01T12:37:41.819Z,14.30
2019-03-01T12:40:28.868Z,12.50
2019-03-01T12:42:55.127Z,14.27
2019-03-01T12:45:21.284Z,14.77
2019-03-01T12:47:47.471Z,14.17
2019-03-01T12:50:13.746Z,11.47
2019-03-01T12:52:39.921Z,13.23
2019-03-01T12:55:09.408Z,13.00
2019-03-01T12:57:35.667Z,13.17
2019-03-01T13:00:02.129Z,13.73
2019-03-01T13:02:28.706Z,13.67
2019-03-01T13:04:54.929Z,14.27
2019-03-01T13:07:21.085Z,13.17
2019-03-01T13:09:47.279Z,13.20
2019-03-01T13:12:13.593Z,13.20
2019-03-01T13:14:40.316Z,12.83
2019-03-01T13:17:06.649Z,12.73
2019-03-01T13:19:32.900Z,11.70
2019-03-01T13:21:59.057Z,12.43
2019-03-01T13:24:25.244Z,11.50
2019-03-01T13:26:51.404Z,12.40
2019-03-01T13:29:19.082Z,12.30
2019-03-01T13:31:47.117Z,13.73
2019-03-01T13:34:14.503Z,14.20
2019-03-01T13:36:40.831Z,10.50
2019-03-01T13:39:10.454Z,12.10
2019-03-01T13:41:37.273Z,12.00
2019-03-01T13:44:04.436Z,9.90
2019-03-01T13:46:33.380Z,10.57
2019-03-01T13:48:58.797Z,12.53
2019-03-01T13:51:24.951Z,13.13
2019-03-01T13:53:51.144Z,12.67
2019-03-01T13:56:17.405Z,10.97
2019-03-01T13:58:43.575Z,9.40
2019-03-01T14:01:09.877Z,10.60
2019-03-01T14:03:36.045Z,10.70
2019-03-01T14:06:02.361Z,8.77
2019-03-01T14:08:28.733Z,10.07
2019-03-01T14:10:55.009Z,9.83
2019-03-01T14:13:21.219Z,9.43
2019-03-01T14:15:47.431Z,9.87
2019-03-01T14:18:13.710Z,10.03
2019-03-01T14:20:39.887Z,9.73
2019-03-01T14:23:06.104Z,10.17
2019-03-01T14:25:32.397Z,9.93
2019-03-01T14:27:58.656Z,9.23
2019-03-01T14:30:30.340Z,10.50
2019-03-01T14:32:56.849Z,11.00
2019-03-01T14:35:25.980Z,11.63
2019-03-01T14:37:54.236Z,9.90
2019-03-01T14:40:19.159Z,8.33
2019-03-01T14:42:47.645Z,10.43
2019-03-01T14:45:25.733Z,10.43
2019-03-01T14:47:52.214Z,8.67
2019-03-01T14:50:25.851Z,10.03
2019-03-01T14:52:56.663Z,9.40
2019-03-01T14:55:32.845Z,10.13
2019-03-01T14:58:08.448Z,9.20
2019-03-01T15:00:40.118Z,10.43
2019-03-01T15:03:26.531Z,10.43
2019-03-01T15:05:52.690Z,9.50
2019-03-01T15:08:24.845Z,9.33
2019-03-01T15:10:51.235Z,9.00
2019-03-01T15:13:17.396Z,9.37
2019-03-01T15:15:45.346Z,9.00
2019-03-01T15:18:11.541Z,8.93
2019-03-01T15:20:37.693Z,10.23
2019-03-01T15:23:04.056Z,11.07
2019-03-01T15:25:30.339Z,11.07
2019-03-01T15:27:56.494Z,9.90
2019-03-01T15:30:23.234Z,10.43
2019-03-01T15:32:49.644Z,11.23
2019-03-01T15:35:15.804Z,10.47
2019-03-01T15:37:41.960Z,10.00
2019-03-01T15:40:09.851Z,11.10
2019-03-01T15:42:36.044Z,10.10
2019-03-01T15:45:05.093Z,12.80
2019-03-01T15:47:32.229Z,13.10
2019-03-01T15:49:58.383Z,15.20
2019-03-01T15:52:24.648Z,16.87
2019-03-01T15:54:50.846Z,10.03
2019-03-01T15:57:19.003Z,12.37
2019-03-01T15:59:47.802Z,11.57
2019-03-01T16:02:13.271Z,12.90
2019-03-01T16:04:39.429Z,10.03
2019-03-01T16:07:05.603Z,10.27
2019-03-01T16:09:31.794Z,10.37
2019-03-01T16:11:57.957Z,12.47
2019-03-01T16:14:25.083Z,9.73
2019-03-01T16:16:51.454Z,13.90
2019-03-01T16:19:17.709Z,15.30
2019-03-01T16:21:43.872Z,15.30
2019-03-01T16:24:10.066Z,42.90
2019-03-01T16:26:37.244Z,12.80
2019-03-01T16:29:03.944Z,19.63
2019-03-01T16:31:32.203Z,11.90
2019-03-01T16:34:00.905Z,15.07
2019-03-01T16:36:30.242Z,28.13
2019-03-01T16:38:56.634Z,14.27
2019-03-01T16:41:22.794Z,16.80
2019-03-01T16:43:49.052Z,15.03
2019-03-01T16:46:15.238Z,17.57
2019-03-01T16:48:41.413Z,15.53
2019-03-01T16:51:07.677Z,13.03
2019-03-01T16:53:36.738Z,14.13
2019-03-01T16:56:03.460Z,15.63
2019-03-01T16:58:29.696Z,15.27
2019-03-01T17:00:55.892Z,15.93
2019-03-01T17:03:22.153Z,20.57
2019-03-01T17:05:50.321Z,17.83
2019-03-01T17:08:16.607Z,16.53
2019-03-01T17:10:42.773Z,17.90
2019-03-01T17:13:12.404Z,22.73
2019-03-01T17:15:38.709Z,18.83
2019-03-01T17:18:04.880Z,19.07
2019-03-01T17:20:31.038Z,22.80
2019-03-01T17:22:59.778Z,21.20
2019-03-01T17:25:26.883Z,20.50
2019-03-01T17:27:53.451Z,19.83
2019-03-01T17:30:24.072Z,21.07
2019-03-01T17:32:50.242Z,18.33
2019-03-01T17:35:16.408Z,20.67
2019-03-01T17:37:43.099Z,18.53
2019-03-01T17:40:16.345Z,17.70
2019-03-01T17:42:42.525Z,19.93
2019-03-01T17:45:17.279Z,19.13
2019-03-01T17:47:45.430Z,20.83
2019-03-01T17:50:12.596Z,20.70
2019-03-01T17:52:38.918Z,22.70
2019-03-01T17:55:08.282Z,23.73
2019-03-01T17:57:34.450Z,21.37
2019-03-01T18:00:00.681Z,25.73
2019-03-01T18:02:26.849Z,26.17
2019-03-01T18:04:53.059Z,35.90
2019-03-01T18:07:19.389Z,41.07
2019-03-01T18:09:47.363Z,30.37
2019-03-01T18:12:13.533Z,35.07
2019-03-01T18:14:39.720Z,35.17
2019-03-01T18:17:07.780Z,37.07
2019-03-01T18:19:34.049Z,36.03
2019-03-01T18:22:02.057Z,31.03
2019-03-01T18:24:28.233Z,25.83
2019-03-01T18:26:54.686Z,24.77
2019-03-01T18:29:21.772Z,24.23
2019-03-01T18:31:50.795Z,27.03
2019-03-01T18:34:16.953Z,24.43
2019-03-01T18:36:43.144Z,25.17
2019-03-01T18:39:09.796Z,25.53
2019-03-01T18:41:35.948Z,24.97
2019-03-01T18:44:02.254Z,28.17
2019-03-01T18:46:28.419Z,28.30
2019-03-01T18:48:54.583Z,26.83
2019-03-01T18:51:20.782Z,27.20
2019-03-01T18:53:46.958Z,26.47
2019-03-01T18:56:13.103Z,26.27
2019-03-01T18:58:39.458Z,27.93
2019-03-01T19:01:07.821Z,42.87
2019-03-01T19:03:36.472Z,30.07
2019-03-01T19:06:04.746Z,29.70
2019-03-01T19:08:31.202Z,28.37
2019-03-01T19:10:59.646Z,33.67
2019-03-01T19:13:25.800Z,29.40
2019-03-01T19:15:54.552Z,28.07
2019-03-01T19:18:20.312Z,27.67
2019-03-01T19:20:49.248Z,28.43
2019-03-01T19:23:15.413Z,27.23
2019-03-01T19:25:41.826Z,26.87
2019-03-01T19:28:08.029Z,32.53
2019-03-01T19:30:34.313Z,26.03
2019-03-01T19:33:02.253Z,28.57
2019-03-01T19:35:29.843Z,26.40
2019-03-01T19:37:56.409Z,26.07
2019-03-01T19:40:23.065Z,27.83
2019-03-01T19:42:49.251Z,27.53
2019-03-01T19:45:16.820Z,26.60
2019-03-01T19:47:43.088Z,26.43
2019-03-01T19:50:26.592Z,30.23
2019-03-01T19:52:52.744Z,30.13
2019-03-01T19:55:19.011Z,27.57
2019-03-01T19:57:45.304Z,29.83
2019-03-01T20:00:20.730Z,30.33
2019-03-01T20:02:47.039Z,27.53
2019-03-01T20:05:18.287Z,26.87
2019-03-01T20:07:44.434Z,26.70
2019-03-01T20:10:15.999Z,27.33
2019-03-01T20:12:42.388Z,26.70
2019-03-01T20:15:14.365Z,26.77
2019-03-01T20:17:44.357Z,26.87
2019-03-01T20:20:12.232Z,26.27
2019-03-01T20:22:38.443Z,25.90
2019-03-01T20:25:08.139Z,25.27
2019-03-01T20:27:35.528Z,26.57
2019-03-01T20:30:05.274Z,25.60
2019-03-01T20:32:31.464Z,27.10
2019-03-01T20:34:57.725Z,25.97
2019-03-01T20:37:24.757Z,25.23
2019-03-01T20:39:52.240Z,27.43
2019-03-01T20:42:23.571Z,26.33
2019-03-01T20:44:46.561Z,25.93
2019-03-01T20:47:15.500Z,26.07
2019-03-01T20:49:40.936Z,26.43
2019-03-01T20:52:07.189Z,24.83
2019-03-01T20:54:33.474Z,25.10
2019-03-01T20:57:01.511Z,24.17
2019-03-01T20:59:27.687Z,23.63
2019-03-01T21:01:55.899Z,23.97
2019-03-01T21:04:21.998Z,24.70
2019-03-01T21:06:48.314Z,23.73
2019-03-01T21:09:14.503Z,23.07
2019-03-01T21:11:42.641Z,24.37
2019-03-01T21:14:10.781Z,23.27
2019-03-01T21:16:37.025Z,22.30
2019-03-01T21:19:05.721Z,25.83
2019-03-01T21:21:31.358Z,23.67
2019-03-01T21:23:57.725Z,24.40
2019-03-01T21:26:24.141Z,22.63
2019-03-01T21:28:50.777Z,22.77
2019-03-01T21:31:17.022Z,22.73
2019-03-01T21:33:43.176Z,22.60
2019-03-01T21:36:09.342Z,23.67
2019-03-01T21:38:35.628Z,26.33
2019-03-01T21:41:01.789Z,24.80
2019-03-01T21:43:33.866Z,29.47
2019-03-01T21:46:00.924Z,26.17
2019-03-01T21:48:27.179Z,30.33
2019-03-01T21:50:53.341Z,22.30
2019-03-01T21:53:19.537Z,23.10
2019-03-01T21:55:46.114Z,21.50
2019-03-01T21:58:12.263Z,21.33
2019-03-01T22:00:39.058Z,18.77
2019-03-01T22:03:05.225Z,20.13
2019-03-01T22:05:31.482Z,18.53
2019-03-01T22:07:57.782Z,17.80
2019-03-01T22:10:23.944Z,17.77
2019-03-01T22:12:50.300Z,18.40
2019-03-01T22:15:27.980Z,18.10
2019-03-01T22:17:55.037Z,19.00
2019-03-01T22:20:21.696Z,16.83
2019-03-01T22:22:47.898Z,17.83
2019-03-01T22:25:14.155Z,17.60
2019-03-01T22:27:41.812Z,17.90
2019-03-01T22:30:29.284Z,17.97
2019-03-01T22:32:55.558Z,18.10
2019-03-01T22:35:21.725Z,17.63
2019-03-01T22:37:47.923Z,17.83
2019-03-01T22:40:14.080Z,19.97
2019-03-01T22:42:40.239Z,19.80
2019-03-01T22:45:14.553Z,18.33
2019-03-01T22:47:40.747Z,18.30
2019-03-01T22:50:13.019Z,18.93
2019-03-01T22:52:39.213Z,18.57
2019-03-01T22:55:07.974Z,18.33
2019-03-01T22:57:34.129Z,17.17
2019-03-01T23:00:00.315Z,18.37
2019-03-01T23:02:26.486Z,17.30
2019-03-01T23:04:52.645Z,17.37
2019-03-01T23:07:18.836Z,16.70
2019-03-01T23:09:46.430Z,16.27
2019-03-01T23:12:14.808Z,16.70
2019-03-01T23:14:41.257Z,16.07
2019-03-01T23:17:07.527Z,16.00
2019-03-01T23:19:33.679Z,15.73
2019-03-01T23:21:59.870Z,15.83
2019-03-01T23:24:26.027Z,15.33
2019-03-01T23:26:53.637Z,15.00
2019-03-01T23:29:20.331Z,14.87
2019-03-01T23:31:46.509Z,14.07
2019-03-01T23:34:12.774Z,14.37
2019-03-01T23:36:38.960Z,13.97
2019-03-01T23:39:05.228Z,14.90
2019-03-01T23:41:31.399Z,14.40
2019-03-01T23:43:57.584Z,13.63
2019-03-01T23:46:25.616Z,13.10
2019-03-01T23:48:51.809Z,13.10
2019-03-01T23:51:18.000Z,13.23
2019-03-01T23:53:44.252Z,12.27
2019-03-01T23:56:10.419Z,12.10
2019-03-01T23:58:36.607Z,14.37
